Time;durP1;ratioP1;P1;durP2;ratioP2;P2;SDS_P1;SDS_P2;PMS_P1;PMS_P2;Temp;Humidity;BMP_temperature;BMP_pressure;BME280_temperature;BME280_humidity;BME280_pressure;Samples;Min_cycle;Max_cycle;Signal;HPM_P1;HPM_P2
2023/09/07 00:01:37;;;;;;;11.70;10.60;;;18.80;99.90;;;;;;5030029;28;20199;-57
2023/09/07 00:04:06;;;;;;;11.83;10.63;;;18.80;99.90;;;;;;5025727;28;20195;-57
2023/09/07 00:06:34;;;;;;;10.87;10.00;;;18.80;99.90;;;;;;5016877;28;20228;-56
2023/09/07 00:09:01;;;;;;;11.20;10.20;;;18.90;99.90;;;;;;5019628;28;20293;-57
2023/09/07 00:11:28;;;;;;;11.63;10.73;;;18.90;99.90;;;;;;5025651;28;20268;-57
2023/09/07 00:13:55;;;;;;;10.77;9.87;;;18.90;99.90;;;;;;5030737;28;20329;-57
2023/09/07 00:16:22;;;;;;;12.07;11.10;;;18.90;99.90;;;;;;5022739;28;20227;-57
2023/09/07 00:18:49;;;;;;;11.07;10.07;;;18.90;99.90;;;;;;5028281;28;20614;-57
2023/09/07 00:21:17;;;;;;;12.70;11.67;;;18.90;99.90;;;;;;5030120;28;20216;-57
2023/09/07 00:23:44;;;;;;;10.80;10.00;;;18.90;99.90;;;;;;5027851;28;20250;-57
2023/09/07 00:26:12;;;;;;;11.40;10.40;;;18.90;99.90;;;;;;5029771;28;20215;-57
2023/09/07 00:28:39;;;;;;;10.87;10.07;;;18.90;99.90;;;;;;5034900;28;20563;-57
2023/09/07 00:31:06;;;;;;;10.93;10.03;;;18.80;99.90;;;;;;5027544;28;20276;-57
2023/09/07 00:33:33;;;;;;;10.00;9.30;;;18.70;99.90;;;;;;5036837;28;20218;-57
2023/09/07 00:36:02;;;;;;;11.93;10.83;;;18.70;99.90;;;;;;5039582;28;20223;-57
2023/09/07 00:38:30;;;;;;;11.97;10.97;;;18.70;99.90;;;;;;5033169;28;20612;-57
2023/09/07 00:40:57;;;;;;;11.80;10.80;;;18.60;99.90;;;;;;5020904;28;20234;-57
2023/09/07 00:43:24;;;;;;;13.17;11.97;;;18.50;99.90;;;;;;5026725;28;20202;-57
2023/09/07 00:45:51;;;;;;;11.07;10.17;;;18.50;99.90;;;;;;5040471;28;20782;-57
2023/09/07 00:48:19;;;;;;;11.50;10.40;;;18.40;99.90;;;;;;5035789;28;20202;-57
2023/09/07 00:50:46;;;;;;;12.57;11.47;;;18.30;99.90;;;;;;5028446;28;20662;-57
2023/09/07 00:53:14;;;;;;;10.03;9.20;;;18.20;99.90;;;;;;5024794;28;20218;-57
2023/09/07 00:55:43;;;;;;;11.13;10.23;;;18.20;99.90;;;;;;5028050;28;20276;-57
2023/09/07 00:58:11;;;;;;;13.07;11.87;;;18.20;99.90;;;;;;5030690;28;20233;-57
2023/09/07 01:00:38;;;;;;;12.93;11.87;;;18.10;99.90;;;;;;5025504;28;20227;-57
2023/09/07 01:03:05;;;;;;;12.47;11.43;;;18.10;99.90;;;;;;5034876;28;20198;-57
2023/09/07 01:05:42;;;;;;;12.37;11.27;;;18.10;99.90;;;;;;5025869;28;20220;-57
2023/09/07 01:08:14;;;;;;;10.63;9.83;;;18.10;99.90;;;;;;5032072;28;20198;-57
2023/09/07 01:10:43;;;;;;;12.53;11.43;;;18.00;99.90;;;;;;5036199;28;20666;-57
2023/09/07 01:13:10;;;;;;;11.83;10.80;;;18.10;99.90;;;;;;5037686;28;20214;-57
2023/09/07 01:15:38;;;;;;;12.47;11.37;;;18.00;99.90;;;;;;5032264;28;20716;-57
2023/09/07 01:18:07;;;;;;;11.13;10.10;;;18.00;99.90;;;;;;5027193;28;20237;-57
2023/09/07 01:20:35;;;;;;;12.90;11.77;;;18.00;99.90;;;;;;5035355;28;20684;-58
2023/09/07 01:23:05;;;;;;;12.60;11.37;;;17.90;99.90;;;;;;5038561;28;20202;-57
2023/09/07 01:25:32;;;;;;;11.60;10.60;;;17.90;99.90;;;;;;5035091;28;20218;-57
2023/09/07 01:27:59;;;;;;;11.90;11.00;;;17.90;99.90;;;;;;5036737;28;20280;-57
2023/09/07 01:30:28;;;;;;;12.57;11.47;;;17.90;99.90;;;;;;5042003;28;20210;-57
2023/09/07 01:32:55;;;;;;;13.63;12.37;;;17.90;99.90;;;;;;5040176;28;20720;-57
2023/09/07 01:35:23;;;;;;;12.10;10.93;;;17.90;99.90;;;;;;5049855;28;20585;-57
2023/09/07 01:37:50;;;;;;;13.70;12.33;;;17.90;99.90;;;;;;5042895;28;20271;-57
2023/09/07 01:40:18;;;;;;;12.73;11.53;;;17.90;99.90;;;;;;5043320;28;20254;-57
2023/09/07 01:42:45;;;;;;;12.10;11.00;;;17.90;99.90;;;;;;5050208;28;20750;-57
2023/09/07 01:45:12;;;;;;;12.67;11.40;;;17.90;99.90;;;;;;5044259;28;20687;-57
2023/09/07 01:47:39;;;;;;;13.20;11.80;;;17.90;99.90;;;;;;5041979;28;20566;-57
2023/09/07 01:50:07;;;;;;;12.53;10.83;;;17.80;99.90;;;;;;5042323;28;20673;-57
2023/09/07 01:52:34;;;;;;;13.23;12.10;;;17.80;99.90;;;;;;5049022;28;20284;-57
2023/09/07 01:55:01;;;;;;;12.43;11.40;;;17.80;99.90;;;;;;5053441;28;20712;-57
2023/09/07 01:57:29;;;;;;;12.13;11.00;;;17.70;99.90;;;;;;5053709;28;20213;-57
2023/09/07 01:59:56;;;;;;;13.07;11.77;;;17.80;99.90;;;;;;5036972;28;20203;-57
2023/09/07 02:02:23;;;;;;;12.17;11.07;;;17.70;99.90;;;;;;5034848;28;20195;-57
2023/09/07 02:04:50;;;;;;;10.80;9.80;;;17.70;99.90;;;;;;5049652;28;20656;-57
2023/09/07 02:07:17;;;;;;;13.10;12.03;;;17.70;99.90;;;;;;5053756;28;20209;-57
2023/09/07 02:09:44;;;;;;;12.27;11.10;;;17.70;99.90;;;;;;5053681;28;20616;-57
2023/09/07 02:12:11;;;;;;;10.47;9.67;;;17.70;99.90;;;;;;5050737;28;20608;-57
2023/09/07 02:14:39;;;;;;;11.57;10.67;;;17.70;99.90;;;;;;5032901;28;20215;-57
2023/09/07 02:17:06;;;;;;;11.73;10.67;;;17.70;99.90;;;;;;5044729;28;20673;-57
2023/09/07 02:19:33;;;;;;;13.40;12.10;;;17.80;99.90;;;;;;5053521;28;20255;-57
2023/09/07 02:22:00;;;;;;;12.63;11.63;;;17.80;99.90;;;;;;5053475;28;20202;-57
2023/09/07 02:24:27;;;;;;;13.17;12.13;;;17.80;99.90;;;;;;5052816;28;20276;-57
2023/09/07 02:26:54;;;;;;;12.00;11.07;;;17.80;99.90;;;;;;5032821;28;20256;-57
2023/09/07 02:29:21;;;;;;;13.20;11.07;;;17.80;99.90;;;;;;5033025;28;20256;-57
2023/09/07 02:31:50;;;;;;;12.17;11.13;;;17.80;99.90;;;;;;5033420;28;20206;-57
2023/09/07 02:34:18;;;;;;;12.10;11.00;;;17.70;99.90;;;;;;5032620;28;20222;-57
2023/09/07 02:36:45;;;;;;;11.60;10.40;;;17.60;99.90;;;;;;5033189;28;20230;-57
2023/09/07 02:39:15;;;;;;;12.03;10.83;;;17.50;99.90;;;;;;5035873;28;20205;-57
2023/09/07 02:41:42;;;;;;;11.30;10.37;;;17.50;99.90;;;;;;5035638;28;20206;-57
2023/09/07 02:44:09;;;;;;;12.00;10.97;;;17.50;99.90;;;;;;5041166;28;20724;-57
2023/09/07 02:46:36;;;;;;;10.30;9.50;;;17.50;99.90;;;;;;5032757;28;20663;-57
2023/09/07 02:49:05;;;;;;;10.90;9.83;;;17.40;99.90;;;;;;5034697;28;20684;-57
2023/09/07 02:51:32;;;;;;;12.43;11.43;;;17.40;99.90;;;;;;5044382;28;20677;-57
2023/09/07 02:53:59;;;;;;;11.20;10.33;;;17.30;99.90;;;;;;5050840;28;20689;-57
2023/09/07 02:56:26;;;;;;;10.40;9.70;;;17.30;99.90;;;;;;5040472;28;20895;-57
2023/09/07 02:58:53;;;;;;;9.87;9.03;;;17.30;99.90;;;;;;5041237;28;20692;-57
2023/09/07 03:01:20;;;;;;;10.47;9.67;;;17.30;99.90;;;;;;5035269;28;20716;-57
2023/09/07 03:03:48;;;;;;;9.50;8.50;;;17.30;99.90;;;;;;5041058;28;20194;-57
2023/09/07 03:06:17;;;;;;;10.43;9.63;;;17.30;99.90;;;;;;5052047;28;20359;-57
2023/09/07 03:08:44;;;;;;;9.27;8.47;;;17.30;99.90;;;;;;5043583;28;20613;-57
2023/09/07 03:11:12;;;;;;;8.97;8.27;;;17.20;99.90;;;;;;5032729;28;20190;-56
2023/09/07 03:13:39;;;;;;;8.90;8.20;;;17.20;99.90;;;;;;5031283;28;20705;-57
2023/09/07 03:16:07;;;;;;;11.00;9.90;;;17.20;99.90;;;;;;5036769;28;20276;-57
2023/09/07 03:18:34;;;;;;;7.77;7.27;;;17.20;99.90;;;;;;5037841;28;20194;-57
2023/09/07 03:21:03;;;;;;;7.63;7.13;;;17.10;99.90;;;;;;5043892;28;20635;-57
2023/09/07 03:23:33;;;;;;;8.40;7.63;;;17.10;99.90;;;;;;5042017;28;20615;-57
2023/09/07 03:26:00;;;;;;;8.60;7.90;;;17.10;99.90;;;;;;5036878;28;20222;-57
2023/09/07 03:28:27;;;;;;;7.00;6.50;;;17.00;99.90;;;;;;5040299;28;20261;-59
2023/09/07 03:30:55;;;;;;;8.00;7.50;;;17.00;99.90;;;;;;5049862;28;20672;-57
2023/09/07 03:33:23;;;;;;;8.10;7.30;;;17.00;99.90;;;;;;5052128;28;20283;-57
2023/09/07 03:35:51;;;;;;;9.03;8.23;;;17.00;99.90;;;;;;5049865;28;20218;-57
2023/09/07 03:38:18;;;;;;;9.10;8.30;;;17.00;99.90;;;;;;5030115;28;20735;-57
2023/09/07 03:40:47;;;;;;;9.20;8.30;;;17.10;99.90;;;;;;5048500;28;20205;-57
2023/09/07 03:43:13;;;;;;;8.40;7.77;;;17.10;99.90;;;;;;5051806;28;20684;-57
2023/09/07 03:45:40;;;;;;;7.53;7.00;;;17.10;99.90;;;;;;5051287;28;20608;-57
2023/09/07 03:48:09;;;;;;;8.93;8.33;;;17.10;99.90;;;;;;5050404;28;20616;-56
2023/09/07 03:50:36;;;;;;;8.57;7.40;;;17.00;99.90;;;;;;5036195;28;20285;-57
2023/09/07 03:53:04;;;;;;;8.60;8.10;;;17.00;99.90;;;;;;5042167;28;20244;-57
2023/09/07 03:55:31;;;;;;;8.87;8.17;;;16.90;99.90;;;;;;5049247;28;20232;-57
2023/09/07 03:57:59;;;;;;;8.70;8.10;;;16.90;99.90;;;;;;5030187;28;20252;-57
2023/09/07 04:00:26;;;;;;;9.17;8.57;;;16.90;99.90;;;;;;5036762;28;20202;-57
2023/09/07 04:02:53;;;;;;;10.17;9.27;;;16.90;99.90;;;;;;5043158;28;20202;-57
2023/09/07 04:05:22;;;;;;;7.77;7.27;;;16.80;99.90;;;;;;5041584;28;20705;-57
2023/09/07 04:07:51;;;;;;;9.13;8.33;;;16.80;99.90;;;;;;5035834;28;20201;-57
2023/09/07 04:10:19;;;;;;;8.63;7.80;;;16.80;99.90;;;;;;5040674;28;20204;-57
2023/09/07 04:12:46;;;;;;;9.00;8.30;;;16.80;99.90;;;;;;5030710;28;20202;-56
2023/09/07 04:15:15;;;;;;;9.17;8.47;;;16.80;99.90;;;;;;5028923;28;20904;-56
2023/09/07 04:17:42;;;;;;;9.40;8.60;;;16.70;99.90;;;;;;5030146;28;21133;-57
2023/09/07 04:20:11;;;;;;;9.87;9.10;;;16.70;99.90;;;;;;5019959;28;20625;-56
2023/09/07 04:22:39;;;;;;;9.57;8.87;;;16.70;99.90;;;;;;5011266;28;20199;-57
2023/09/07 04:25:07;;;;;;;9.20;8.50;;;16.70;99.90;;;;;;5029802;28;20223;-57
2023/09/07 04:27:34;;;;;;;11.50;10.67;;;16.70;99.90;;;;;;5030982;28;20198;-56
2023/09/07 04:30:01;;;;;;;9.87;9.17;;;16.70;99.90;;;;;;5023477;28;20239;-57
2023/09/07 04:32:29;;;;;;;9.63;8.83;;;16.70;99.90;;;;;;5020960;28;20269;-56
2023/09/07 04:34:59;;;;;;;8.93;8.33;;;16.70;99.90;;;;;;5020743;28;20705;-56
2023/09/07 04:37:26;;;;;;;9.90;9.10;;;16.70;99.90;;;;;;5011319;28;20257;-56
2023/09/07 04:39:54;;;;;;;9.90;9.20;;;16.80;99.90;;;;;;5011143;28;20733;-57
2023/09/07 04:42:21;;;;;;;8.33;7.70;;;16.80;99.90;;;;;;5011138;28;20210;-57
2023/09/07 04:44:49;;;;;;;8.83;8.27;;;16.70;99.90;;;;;;5027424;28;20300;-57
2023/09/07 04:47:16;;;;;;;8.50;7.90;;;16.70;99.90;;;;;;5021245;28;20206;-56
2023/09/07 04:49:50;;;;;;;9.87;9.07;;;16.70;99.90;;;;;;5020767;28;20288;-57
2023/09/07 04:52:17;;;;;;;9.47;8.73;;;16.60;99.90;;;;;;5029197;28;20201;-56
2023/09/07 04:54:45;;;;;;;8.80;8.27;;;16.60;99.90;;;;;;5022251;28;20280;-56
2023/09/07 04:57:12;;;;;;;9.33;8.47;;;16.60;99.90;;;;;;5011167;28;20198;-56
2023/09/07 04:59:39;;;;;;;8.63;7.87;;;16.60;99.90;;;;;;5025373;28;20658;-56
2023/09/07 05:02:06;;;;;;;10.00;9.30;;;16.60;99.90;;;;;;5020066;28;20256;-56
2023/09/07 05:04:33;;;;;;;8.80;8.00;;;16.60;99.90;;;;;;5010643;28;20273;-56
2023/09/07 05:07:01;;;;;;;9.73;9.03;;;16.60;99.90;;;;;;5027438;28;20202;-56
2023/09/07 05:09:29;;;;;;;10.70;10.00;;;16.70;99.90;;;;;;5030708;28;20614;-56
2023/09/07 05:11:56;;;;;;;11.00;10.30;;;16.70;99.90;;;;;;5030655;28;20199;-56
2023/09/07 05:14:24;;;;;;;9.67;9.07;;;16.70;99.90;;;;;;5024255;28;20219;-56
2023/09/07 05:16:52;;;;;;;11.03;10.23;;;16.80;99.90;;;;;;5017290;28;20226;-56
2023/09/07 05:19:19;;;;;;;9.40;8.60;;;16.80;99.90;;;;;;5017981;28;20234;-56
2023/09/07 05:21:46;;;;;;;10.33;9.43;;;16.80;99.90;;;;;;5010744;28;20203;-56
2023/09/07 05:24:17;;;;;;;11.57;10.70;;;16.90;99.90;;;;;;5023743;28;20198;-56
2023/09/07 05:26:44;;;;;;;10.60;9.60;;;16.90;99.90;;;;;;5034443;28;20261;-56
2023/09/07 05:29:13;;;;;;;10.27;9.47;;;17.00;99.90;;;;;;5024885;28;20203;-56
2023/09/07 05:31:40;;;;;;;10.27;9.57;;;17.10;99.90;;;;;;5019104;28;20199;-56
2023/09/07 05:34:07;;;;;;;10.03;9.23;;;17.20;99.90;;;;;;5014254;28;20281;-56
2023/09/07 05:36:34;;;;;;;10.33;9.57;;;17.30;99.90;;;;;;5028715;28;20226;-56
2023/09/07 05:39:02;;;;;;;9.67;9.00;;;17.30;99.90;;;;;;5034166;28;20210;-56
2023/09/07 05:41:31;;;;;;;11.40;10.53;;;17.40;99.90;;;;;;5033171;28;20630;-56
2023/09/07 05:43:58;;;;;;;9.07;8.23;;;17.50;99.90;;;;;;5024360;28;20202;-56
2023/09/07 05:46:25;;;;;;;9.60;8.90;;;17.80;99.90;;;;;;5013757;28;20273;-56
2023/09/07 05:48:52;;;;;;;10.10;9.30;;;18.70;99.90;;;;;;5014346;28;20203;-56
2023/09/07 05:51:19;;;;;;;10.23;9.43;;;19.70;99.90;;;;;;5026579;28;20244;-59
2023/09/07 05:53:46;;;;;;;10.37;9.43;;;20.70;99.90;;;;;;5033847;28;20203;-56
2023/09/07 05:56:13;;;;;;;9.17;8.57;;;21.50;99.90;;;;;;5017111;28;20222;-56
2023/09/07 05:58:41;;;;;;;8.73;8.13;;;22.30;99.90;;;;;;5031732;28;20653;-56
2023/09/07 06:01:08;;;;;;;10.93;9.53;;;22.90;99.90;;;;;;5033618;28;20206;-56
2023/09/07 06:03:35;;;;;;;9.10;8.50;;;23.50;99.90;;;;;;5033976;28;20261;-56
2023/09/07 06:06:03;;;;;;;7.90;7.30;;;24.00;99.90;;;;;;5027229;28;20222;-57
2023/09/07 06:08:31;;;;;;;7.73;7.13;;;24.40;99.90;;;;;;5033458;28;20209;-57
2023/09/07 06:11:00;;;;;;;8.33;7.70;;;24.80;99.90;;;;;;5032290;28;20206;-57
2023/09/07 06:13:28;;;;;;;9.20;8.50;;;25.30;99.90;;;;;;5033459;28;20201;-57
2023/09/07 06:16:02;;;;;;;9.33;8.60;;;25.60;99.90;;;;;;5032470;28;20615;-55
2023/09/07 06:18:30;;;;;;;8.60;7.90;;;26.00;99.90;;;;;;5031966;28;20720;-56
2023/09/07 06:20:57;;;;;;;10.20;9.50;;;26.10;99.90;;;;;;5030204;28;20208;-66
2023/09/07 06:23:26;;;;;;;8.03;7.53;;;26.60;99.90;;;;;;5031923;28;20202;-66
2023/09/07 06:25:53;;;;;;;8.40;7.80;;;26.70;99.90;;;;;;5019484;28;20277;-63
2023/09/07 06:28:20;;;;;;;9.03;8.23;;;27.20;99.90;;;;;;5030987;28;20259;-63
2023/09/07 06:30:47;;;;;;;8.13;7.53;;;27.60;99.90;;;;;;5032791;28;20214;-61
2023/09/07 06:33:15;;;;;;;9.13;8.43;;;27.80;99.90;;;;;;5030040;28;20202;-64
2023/09/07 06:35:42;;;;;;;8.55;7.97;;;28.10;99.90;;;;;;5030561;28;20776;-65
2023/09/07 06:38:10;;;;;;;9.32;8.50;;;28.30;99.90;;;;;;5032722;28;20206;-63
2023/09/07 06:40:37;;;;;;;8.70;7.50;;;28.60;99.90;;;;;;5023099;28;20609;-57
2023/09/07 06:43:05;;;;;;;7.45;6.85;;;29.00;99.90;;;;;;5024935;28;20680;-57
2023/09/07 06:45:37;;;;;;;8.18;7.50;;;28.50;99.90;;;;;;5032146;28;20221;-56
2023/09/07 06:48:05;;;;;;;6.32;5.88;;;29.00;99.90;;;;;;5031726;28;20289;-65
2023/09/07 06:50:34;;;;;;;7.75;6.95;;;29.30;99.90;;;;;;5024406;28;20199;-64
2023/09/07 06:53:01;;;;;;;6.60;6.28;;;29.30;99.90;;;;;;5022644;28;20226;-65
2023/09/07 06:55:30;;;;;;;6.32;6.03;;;28.90;99.90;;;;;;5012218;28;20755;-65
2023/09/07 06:57:57;;;;;;;8.85;6.25;;;29.10;99.90;;;;;;5012655;28;20261;-65
2023/09/07 07:00:24;;;;;;;5.45;5.05;;;29.20;99.90;;;;;;5012703;28;20580;-64
2023/09/07 07:02:51;;;;;;;6.05;5.70;;;29.50;99.90;;;;;;5031575;28;20628;-65
2023/09/07 07:05:18;;;;;;;4.97;4.68;;;29.20;99.90;;;;;;5030714;28;20224;-63
2023/09/07 07:07:47;;;;;;;5.40;5.10;;;29.50;99.90;;;;;;5023997;28;20207;-64
2023/09/07 07:10:14;;;;;;;6.22;6.03;;;29.70;99.90;;;;;;5012722;28;20198;-64
2023/09/07 07:12:41;;;;;;;5.60;5.30;;;29.70;99.90;;;;;;5018206;28;20203;-65
2023/09/07 07:15:11;;;;;;;6.72;6.35;;;30.20;99.90;;;;;;5033368;28;20230;-62
2023/09/07 07:17:38;;;;;;;8.40;6.75;;;30.50;99.90;;;;;;5027518;28;20214;-55
2023/09/07 07:20:06;;;;;;;7.22;6.72;;;30.20;99.90;;;;;;5024565;28;20203;-57
2023/09/07 07:22:35;;;;;;;5.97;5.53;;;30.40;99.90;;;;;;5025442;28;20554;-56
2023/09/07 07:25:05;;;;;;;8.20;7.57;;;30.80;99.90;;;;;;5027664;28;20301;-57
2023/09/07 07:27:32;;;;;;;6.05;5.75;;;30.80;99.90;;;;;;5018509;28;20301;-56
2023/09/07 07:29:59;;;;;;;6.97;6.38;;;30.80;99.90;;;;;;5021870;28;20674;-57
2023/09/07 07:32:26;;;;;;;5.97;5.57;;;31.10;99.90;;;;;;5020719;28;20203;-57
2023/09/07 07:34:53;;;;;;;5.30;5.00;;;31.30;99.90;;;;;;5028097;28;20230;-56
2023/09/07 07:37:21;;;;;;;8.00;7.50;;;31.80;99.90;;;;;;5027959;28;20234;-59
2023/09/07 07:39:48;;;;;;;7.40;6.78;;;31.50;99.90;;;;;;5024312;28;20202;-57
2023/09/07 07:42:18;;;;;;;8.15;7.25;;;31.30;99.90;;;;;;5024797;28;20208;-57
2023/09/07 07:44:45;;;;;;;7.00;6.63;;;30.30;99.90;;;;;;5017151;28;20215;-56
2023/09/07 07:47:12;;;;;;;7.78;7.22;;;30.70;99.90;;;;;;5011967;28;20207;-57
2023/09/07 07:49:39;;;;;;;8.15;7.55;;;30.90;99.90;;;;;;5021987;28;20203;-57
2023/09/07 07:52:06;;;;;;;6.90;6.50;;;31.00;99.90;;;;;;5026984;28;20613;-57
2023/09/07 07:54:35;;;;;;;6.50;6.10;;;31.30;99.90;;;;;;5020330;28;20202;-57
2023/09/07 07:57:02;;;;;;;6.38;6.07;;;31.80;99.90;;;;;;5019348;28;20677;-57
2023/09/07 07:59:30;;;;;;;7.20;6.55;;;32.10;99.90;;;;;;5020746;28;20262;-56
2023/09/07 08:01:57;;;;;;;8.15;7.53;;;32.30;99.90;;;;;;5021027;28;20280;-57
2023/09/07 08:04:24;;;;;;;7.90;7.22;;;32.40;99.90;;;;;;5021893;28;20197;-57
2023/09/07 08:06:54;;;;;;;7.55;7.00;;;32.60;99.90;;;;;;5026039;28;20208;-57
2023/09/07 08:09:21;;;;;;;7.43;7.03;;;32.70;99.90;;;;;;5025871;28;20199;-59
2023/09/07 08:11:48;;;;;;;9.35;8.20;;;32.70;99.90;;;;;;5025734;28;20202;-65
2023/09/07 08:14:18;;;;;;;8.02;7.53;;;31.80;99.90;;;;;;5030278;28;20242;-61
2023/09/07 08:16:47;;;;;;;7.05;6.55;;;31.30;99.90;;;;;;5023563;28;20230;-62
2023/09/07 08:19:18;;;;;;;7.15;6.55;;;31.00;99.90;;;;;;5030197;28;20194;-63
2023/09/07 08:21:47;;;;;;;8.25;7.57;;;31.30;99.90;;;;;;5021157;28;20241;-65
2023/09/07 08:24:18;;;;;;;7.05;6.65;;;31.40;99.90;;;;;;5024009;28;20226;-63
2023/09/07 08:26:45;;;;;;;7.28;6.68;;;31.20;99.90;;;;;;5022984;28;20222;-63
2023/09/07 08:29:11;;;;;;;7.68;6.50;;;31.60;99.90;;;;;;5029818;28;20198;-63
2023/09/07 08:31:39;;;;;;;7.18;6.68;;;31.60;99.90;;;;;;5027722;28;20342;-62
2023/09/07 08:34:11;;;;;;;8.20;7.63;;;31.20;99.90;;;;;;5021881;28;20233;-62
2023/09/07 08:36:38;;;;;;;7.90;7.35;;;30.10;99.90;;;;;;5027052;28;20218;-60
2023/09/07 08:39:09;;;;;;;8.35;7.85;;;30.20;99.90;;;;;;5028862;28;20662;-62
2023/09/07 08:41:41;;;;;;;9.32;8.70;;;29.50;99.90;;;;;;5025493;28;20203;-63
2023/09/07 08:44:10;;;;;;;7.75;7.07;;;29.30;99.90;;;;;;5025468;28;20279;-61
2023/09/07 08:46:38;;;;;;;9.55;8.63;;;29.50;99.90;;;;;;5021490;28;20214;-62
2023/09/07 08:49:06;;;;;;;9.18;8.20;;;29.70;99.90;;;;;;5027970;28;20272;-62
2023/09/07 08:51:36;;;;;;;8.68;8.27;;;29.80;99.90;;;;;;5014935;28;20254;-62
2023/09/07 08:54:03;;;;;;;8.98;8.38;;;30.00;99.90;;;;;;5018938;28;20234;-63
2023/09/07 08:56:30;;;;;;;8.02;7.40;;;29.90;99.90;;;;;;5010268;28;20776;-56
2023/09/07 08:58:57;;;;;;;8.60;8.02;;;30.10;99.90;;;;;;5012019;28;20277;-55
2023/09/07 09:01:24;;;;;;;8.00;7.30;;;30.00;99.90;;;;;;5014909;28;20207;-56
2023/09/07 09:03:52;;;;;;;6.85;6.28;;;30.00;99.90;;;;;;5027748;28;20665;-57
2023/09/07 09:06:22;;;;;;;7.63;7.00;;;29.80;99.90;;;;;;5029170;28;20275;-56
2023/09/07 09:08:50;;;;;;;8.30;7.60;;;30.00;99.90;;;;;;5034888;28;20197;-56
2023/09/07 09:11:18;;;;;;;7.35;6.78;;;30.10;99.90;;;;;;5025845;28;20202;-56
2023/09/07 09:13:46;;;;;;;7.28;6.68;;;30.30;99.90;;;;;;5025685;28;20550;-57
2023/09/07 09:16:13;;;;;;;8.77;8.07;;;30.10;99.90;;;;;;5028794;28;20241;-56
2023/09/07 09:18:48;;;;;;;6.68;6.07;;;30.00;99.90;;;;;;5033332;28;20209;-55
2023/09/07 09:21:16;;;;;;;7.55;7.03;;;30.30;99.90;;;;;;5032737;28;20677;-64
2023/09/07 09:23:44;;;;;;;6.85;6.55;;;31.20;99.90;;;;;;5028819;28;20210;-64
2023/09/07 09:26:13;;;;;;;7.28;6.78;;;31.70;99.90;;;;;;5025788;28;20356;-64
2023/09/07 09:28:40;;;;;;;7.28;6.63;;;31.90;99.90;;;;;;5033569;28;20198;-63
2023/09/07 09:31:12;;;;;;;6.75;6.25;;;32.00;99.90;;;;;;5034371;28;20210;-64
2023/09/07 09:33:39;;;;;;;8.48;7.90;;;31.80;99.90;;;;;;5038871;28;20222;-64
2023/09/07 09:36:07;;;;;;;7.70;7.20;;;30.70;99.90;;;;;;5041580;28;20225;-63
2023/09/07 09:38:35;;;;;;;9.02;8.48;;;30.30;99.90;;;;;;5048349;28;20206;-63
2023/09/07 09:41:04;;;;;;;8.45;7.95;;;30.00;99.90;;;;;;5045904;28;20619;-64
2023/09/07 09:43:31;;;;;;;7.40;6.88;;;29.60;99.90;;;;;;5047594;28;20649;-64
2023/09/07 09:46:00;;;;;;;8.30;7.60;;;29.60;99.90;;;;;;5025761;28;20660;-64
2023/09/07 09:48:29;;;;;;;8.20;7.47;;;29.30;99.90;;;;;;5026363;28;20198;-65
2023/09/07 09:50:57;;;;;;;7.07;6.47;;;29.90;99.90;;;;;;5030797;28;20245;-63
2023/09/07 09:53:26;;;;;;;7.55;7.15;;;30.80;99.90;;;;;;5025714;28;20202;-63
2023/09/07 09:55:54;;;;;;;8.43;7.82;;;31.10;99.90;;;;;;5030167;28;20305;-63
2023/09/07 09:58:22;;;;;;;8.57;7.97;;;31.00;99.90;;;;;;5025149;28;20248;-63
2023/09/07 10:00:52;;;;;;;8.50;7.90;;;31.40;99.90;;;;;;5032392;28;20206;-64
2023/09/07 10:03:24;;;;;;;7.28;6.88;;;31.40;99.90;;;;;;5022863;28;20526;-64
2023/09/07 10:05:51;;;;;;;7.32;6.90;;;31.40;99.90;;;;;;5032003;28;20225;-64
2023/09/07 10:08:22;;;;;;;7.00;6.60;;;31.30;99.90;;;;;;5025016;28;20202;-64
2023/09/07 10:10:53;;;;;;;7.43;6.90;;;31.10;99.90;;;;;;5032384;28;20701;-64
2023/09/07 10:13:30;;;;;;;8.05;7.55;;;31.20;99.90;;;;;;5024804;28;20265;-63
2023/09/07 10:16:04;;;;;;;8.23;7.82;;;30.60;99.90;;;;;;5031060;28;20222;-55
2023/09/07 10:18:35;;;;;;;7.45;6.95;;;30.30;99.90;;;;;;5031608;28;20237;-56
2023/09/07 10:21:03;;;;;;;8.02;7.25;;;31.00;99.90;;;;;;5029410;28;20202;-64
2023/09/07 10:23:38;;;;;;;7.90;7.35;;;31.60;99.90;;;;;;5031266;28;20745;-56
2023/09/07 10:26:06;;;;;;;7.07;6.65;;;31.00;99.90;;;;;;5030091;28;20223;-56
2023/09/07 10:28:34;;;;;;;6.68;6.28;;;30.80;99.90;;;;;;5031675;28;20194;-56
2023/09/07 10:31:04;;;;;;;7.38;6.97;;;31.20;99.90;;;;;;5021531;28;20203;-56
2023/09/07 10:33:32;;;;;;;8.18;7.63;;;31.30;99.90;;;;;;5032316;28;20277;-56
2023/09/07 10:35:59;;;;;;;6.93;6.43;;;31.20;99.90;;;;;;5031241;28;20233;-57
2023/09/07 10:38:26;;;;;;;7.60;7.10;;;31.50;99.90;;;;;;5032138;28;20207;-56
2023/09/07 10:41:01;;;;;;;8.13;7.63;;;30.80;99.90;;;;;;5032578;28;20290;-55
2023/09/07 10:43:28;;;;;;;7.65;7.07;;;30.70;99.90;;;;;;5030219;28;20641;-56
2023/09/07 10:45:58;;;;;;;7.63;7.13;;;30.60;99.90;;;;;;5030677;28;20318;-56
2023/09/07 10:48:26;;;;;;;7.78;7.10;;;30.40;99.90;;;;;;5026928;28;20249;-56
2023/09/07 10:50:53;;;;;;;9.02;7.80;;;30.00;99.90;;;;;;5032237;28;20691;-56
2023/09/07 10:53:31;;;;;;;8.35;7.70;;;29.10;99.90;;;;;;5021840;28;20199;-56
2023/09/07 10:55:59;;;;;;;7.85;7.25;;;28.30;99.90;;;;;;5028625;28;20221;-56
2023/09/07 10:58:28;;;;;;;8.05;7.40;;;28.20;99.90;;;;;;5031599;28;20202;-56
2023/09/07 11:00:57;;;;;;;7.10;6.70;;;27.80;99.90;;;;;;5027871;28;20206;-55
2023/09/07 11:03:25;;;;;;;8.20;7.55;;;28.00;99.90;;;;;;5025940;28;20979;-56
2023/09/07 11:05:55;;;;;;;8.23;7.68;;;28.00;99.90;;;;;;5031136;28;20306;-55
2023/09/07 11:08:22;;;;;;;7.38;6.90;;;27.70;99.90;;;;;;5022848;28;20565;-55
2023/09/07 11:10:51;;;;;;;7.40;6.78;;;27.50;99.90;;;;;;5025038;28;20202;-56
2023/09/07 11:13:18;;;;;;;8.63;8.00;;;27.50;99.90;;;;;;5032348;28;20285;-56
2023/09/07 11:15:45;;;;;;;8.18;7.47;;;27.20;99.90;;;;;;5034593;28;20903;-56
2023/09/07 11:18:14;;;;;;;7.63;7.03;;;27.20;99.90;;;;;;5021419;28;20211;-56
2023/09/07 11:20:41;;;;;;;7.70;7.20;;;27.20;99.90;;;;;;5017964;28;20286;-56
2023/09/07 11:23:08;;;;;;;8.95;8.13;;;27.10;99.90;;;;;;5033520;28;20202;-56
2023/09/07 11:25:36;;;;;;;9.98;9.00;;;26.90;99.90;;;;;;5028612;28;20230;-55
2023/09/07 11:28:04;;;;;;;8.50;7.77;;;26.60;99.90;;;;;;5029871;28;20652;-55
2023/09/07 11:30:31;;;;;;;8.30;7.60;;;26.40;99.90;;;;;;5031666;28;20709;-56
2023/09/07 11:33:07;;;;;;;7.83;7.10;;;26.40;99.90;;;;;;5029299;28;20202;-55
2023/09/07 11:35:36;;;;;;;7.90;7.43;;;26.50;99.90;;;;;;5019930;28;20273;-55
2023/09/07 11:38:06;;;;;;;8.17;7.57;;;26.80;99.90;;;;;;5029626;28;20206;-56
2023/09/07 11:40:33;;;;;;;8.40;7.80;;;27.00;99.90;;;;;;5032073;28;20194;-56
2023/09/07 11:43:00;;;;;;;7.93;7.22;;;26.90;99.90;;;;;;5035451;28;20735;-55
2023/09/07 11:45:27;;;;;;;9.03;6.60;;;26.90;99.90;;;;;;5011196;28;20226;-56
2023/09/07 11:47:54;;;;;;;7.97;7.57;;;27.10;99.90;;;;;;5027868;28;20198;-56
2023/09/07 11:50:24;;;;;;;7.80;7.30;;;27.30;99.90;;;;;;5018555;28;20241;-56
2023/09/07 11:52:52;;;;;;;8.33;7.70;;;27.30;99.90;;;;;;5019047;28;20261;-56
2023/09/07 11:55:19;;;;;;;8.02;7.53;;;27.30;99.90;;;;;;5024138;28;20276;-56
2023/09/07 11:57:46;;;;;;;7.53;6.80;;;27.40;99.90;;;;;;5027004;28;20218;-56
2023/09/07 12:00:14;;;;;;;9.52;8.77;;;27.60;99.90;;;;;;5041051;28;20194;-57
2023/09/07 12:02:41;;;;;;;10.13;8.98;;;27.60;99.90;;;;;;5032831;28;20197;-56
2023/09/07 12:05:09;;;;;;;8.25;7.45;;;27.50;99.90;;;;;;5027441;28;20289;-56
2023/09/07 12:07:36;;;;;;;8.30;7.80;;;27.30;99.90;;;;;;5022694;28;20715;-56
2023/09/07 12:10:06;;;;;;;8.43;7.78;;;27.30;99.90;;;;;;5029486;28;20281;-56
2023/09/07 12:12:33;;;;;;;7.80;7.40;;;27.30;99.90;;;;;;5026624;28;20244;-56
2023/09/07 12:15:00;;;;;;;7.13;6.72;;;27.20;99.90;;;;;;5025856;28;20226;-56
2023/09/07 12:17:27;;;;;;;7.22;6.93;;;27.20;99.90;;;;;;5030179;28;20284;-55
2023/09/07 12:19:54;;;;;;;8.30;7.82;;;27.20;99.90;;;;;;5026114;28;20284;-56
2023/09/07 12:22:21;;;;;;;7.75;7.18;;;27.20;99.90;;;;;;5022802;28;20198;-56
2023/09/07 12:24:48;;;;;;;8.23;7.53;;;27.10;99.90;;;;;;5028976;28;20223;-56
2023/09/07 12:27:16;;;;;;;7.75;7.35;;;27.10;99.90;;;;;;5024177;28;20221;-56
2023/09/07 12:29:43;;;;;;;7.65;6.35;;;27.20;99.90;;;;;;5027366;28;20264;-56
2023/09/07 12:32:11;;;;;;;6.63;6.15;;;27.20;99.90;;;;;;5028920;28;20249;-56
2023/09/07 12:34:38;;;;;;;7.85;7.30;;;27.20;99.90;;;;;;5027382;28;20666;-56
2023/09/07 12:37:06;;;;;;;6.60;6.25;;;27.30;99.90;;;;;;5025286;28;20280;-56
2023/09/07 12:39:33;;;;;;;6.05;5.72;;;27.40;99.90;;;;;;5026320;28;20207;-56
2023/09/07 12:42:00;;;;;;;6.93;6.43;;;27.40;99.90;;;;;;5029947;23;20264;-56
2023/09/07 12:44:28;;;;;;;6.13;5.93;;;27.50;99.90;;;;;;5023956;28;20742;-55